sensor_id;sensor_type;location;lat;lon;timestamp;P1;durP1;ratioP1;P2;durP2;ratioP2
3197;SDS011;1611;49.394;11.136;2023-08-31T00:01:53;4.60;;;4.03;;
3197;SDS011;1611;49.394;11.136;2023-08-31T00:04:20;5.80;;;4.60;;
3197;SDS011;1611;49.394;11.136;2023-08-31T00:06:46;3.77;;;3.47;;
3197;SDS011;1611;49.394;11.136;2023-08-31T00:09:13;3.80;;;3.50;;
3197;SDS011;1611;49.394;11.136;2023-08-31T00:11:40;4.17;;;3.87;;
3197;SDS011;1611;49.394;11.136;2023-08-31T00:14:07;3.43;;;3.33;;
3197;SDS011;1611;49.394;11.136;2023-08-31T00:16:35;4.10;;;3.80;;
3197;SDS011;1611;49.394;11.136;2023-08-31T00:19:02;5.60;;;3.67;;
3197;SDS011;1611;49.394;11.136;2023-08-31T00:21:29;4.50;;;3.90;;
3197;SDS011;1611;49.394;11.136;2023-08-31T00:23:56;4.40;;;4.07;;
3197;SDS011;1611;49.394;11.136;2023-08-31T00:26:23;4.53;;;4.13;;
3197;SDS011;1611;49.394;11.136;2023-08-31T00:28:49;6.00;;;4.23;;
3197;SDS011;1611;49.394;11.136;2023-08-31T00:31:16;4.30;;;3.97;;
3197;SDS011;1611;49.394;11.136;2023-08-31T00:33:44;3.67;;;3.30;;
3197;SDS011;1611;49.394;11.136;2023-08-31T00:36:11;4.30;;;4.00;;
3197;SDS011;1611;49.394;11.136;2023-08-31T00:38:38;5.77;;;3.80;;
3197;SDS011;1611;49.394;11.136;2023-08-31T00:41:04;4.80;;;3.90;;
3197;SDS011;1611;49.394;11.136;2023-08-31T00:43:31;3.10;;;2.97;;
3197;SDS011;1611;49.394;11.136;2023-08-31T00:45:58;6.07;;;4.10;;
3197;SDS011;1611;49.394;11.136;2023-08-31T00:48:25;3.77;;;3.57;;
3197;SDS011;1611;49.394;11.136;2023-08-31T00:50:53;4.00;;;3.70;;
3197;SDS011;1611;49.394;11.136;2023-08-31T00:53:21;3.93;;;3.53;;
3197;SDS011;1611;49.394;11.136;2023-08-31T00:55:48;3.67;;;3.37;;
3197;SDS011;1611;49.394;11.136;2023-08-31T00:58:14;3.47;;;3.23;;
3197;SDS011;1611;49.394;11.136;2023-08-31T01:00:43;4.47;;;3.77;;
3197;SDS011;1611;49.394;11.136;2023-08-31T01:03:31;3.93;;;3.63;;
3197;SDS011;1611;49.394;11.136;2023-08-31T01:06:09;11.27;;;3.47;;
3197;SDS011;1611;49.394;11.136;2023-08-31T01:08:43;6.30;;;3.87;;
3197;SDS011;1611;49.394;11.136;2023-08-31T01:11:16;4.73;;;4.27;;
3197;SDS011;1611;49.394;11.136;2023-08-31T01:13:49;3.53;;;3.23;;
3197;SDS011;1611;49.394;11.136;2023-08-31T01:16:22;5.50;;;4.07;;
3197;SDS011;1611;49.394;11.136;2023-08-31T01:18:50;3.83;;;3.53;;
3197;SDS011;1611;49.394;11.136;2023-08-31T01:21:20;4.13;;;3.77;;
3197;SDS011;1611;49.394;11.136;2023-08-31T01:23:52;6.00;;;4.13;;
3197;SDS011;1611;49.394;11.136;2023-08-31T01:26:20;3.37;;;3.17;;
3197;SDS011;1611;49.394;11.136;2023-08-31T01:28:48;5.83;;;3.80;;
3197;SDS011;1611;49.394;11.136;2023-08-31T01:31:15;5.00;;;3.77;;
3197;SDS011;1611;49.394;11.136;2023-08-31T01:33:42;5.73;;;3.73;;
3197;SDS011;1611;49.394;11.136;2023-08-31T01:36:12;3.47;;;3.30;;
3197;SDS011;1611;49.394;11.136;2023-08-31T01:38:44;4.03;;;3.83;;
3197;SDS011;1611;49.394;11.136;2023-08-31T01:41:16;4.77;;;3.07;;
3197;SDS011;1611;49.394;11.136;2023-08-31T01:43:45;10.43;;;3.97;;
3197;SDS011;1611;49.394;11.136;2023-08-31T01:46:14;4.50;;;4.10;;
3197;SDS011;1611;49.394;11.136;2023-08-31T01:48:42;4.30;;;3.90;;
3197;SDS011;1611;49.394;11.136;2023-08-31T01:51:09;3.77;;;3.40;;
3197;SDS011;1611;49.394;11.136;2023-08-31T01:53:36;3.57;;;3.30;;
3197;SDS011;1611;49.394;11.136;2023-08-31T01:56:03;3.60;;;3.27;;
3197;SDS011;1611;49.394;11.136;2023-08-31T01:58:32;14.43;;;4.10;;
3197;SDS011;1611;49.394;11.136;2023-08-31T02:00:59;5.23;;;4.10;;
3197;SDS011;1611;49.394;11.136;2023-08-31T02:03:25;6.77;;;4.13;;
3197;SDS011;1611;49.394;11.136;2023-08-31T02:05:52;4.97;;;3.70;;
3197;SDS011;1611;49.394;11.136;2023-08-31T02:08:19;4.37;;;4.00;;
3197;SDS011;1611;49.394;11.136;2023-08-31T02:10:46;5.47;;;3.60;;
3197;SDS011;1611;49.394;11.136;2023-08-31T02:13:13;4.43;;;3.30;;
3197;SDS011;1611;49.394;11.136;2023-08-31T02:15:42;8.23;;;3.90;;
3197;SDS011;1611;49.394;11.136;2023-08-31T02:18:09;9.20;;;3.50;;
3197;SDS011;1611;49.394;11.136;2023-08-31T02:20:36;6.40;;;3.53;;
3197;SDS011;1611;49.394;11.136;2023-08-31T02:23:03;4.93;;;3.80;;
3197;SDS011;1611;49.394;11.136;2023-08-31T02:25:30;6.90;;;3.40;;
3197;SDS011;1611;49.394;11.136;2023-08-31T02:27:57;5.40;;;3.67;;
3197;SDS011;1611;49.394;11.136;2023-08-31T02:30:24;4.30;;;4.00;;
3197;SDS011;1611;49.394;11.136;2023-08-31T02:32:52;4.20;;;3.90;;
3197;SDS011;1611;49.394;11.136;2023-08-31T02:35:19;7.10;;;3.93;;
3197;SDS011;1611;49.394;11.136;2023-08-31T02:37:46;6.00;;;4.70;;
3197;SDS011;1611;49.394;11.136;2023-08-31T02:40:12;6.90;;;3.90;;
3197;SDS011;1611;49.394;11.136;2023-08-31T02:42:40;5.00;;;4.50;;
3197;SDS011;1611;49.394;11.136;2023-08-31T02:45:07;3.40;;;3.20;;
3197;SDS011;1611;49.394;11.136;2023-08-31T02:47:35;5.17;;;4.07;;
3197;SDS011;1611;49.394;11.136;2023-08-31T02:50:03;4.67;;;4.13;;
3197;SDS011;1611;49.394;11.136;2023-08-31T02:52:31;18.87;;;3.83;;
3197;SDS011;1611;49.394;11.136;2023-08-31T02:54:58;4.73;;;4.37;;
3197;SDS011;1611;49.394;11.136;2023-08-31T02:57:24;5.77;;;4.10;;
3197;SDS011;1611;49.394;11.136;2023-08-31T02:59:51;4.23;;;3.93;;
3197;SDS011;1611;49.394;11.136;2023-08-31T03:02:18;6.33;;;3.87;;
3197;SDS011;1611;49.394;11.136;2023-08-31T03:04:45;5.23;;;3.63;;
3197;SDS011;1611;49.394;11.136;2023-08-31T03:07:13;7.80;;;4.20;;
3197;SDS011;1611;49.394;11.136;2023-08-31T03:09:40;4.33;;;4.10;;
3197;SDS011;1611;49.394;11.136;2023-08-31T03:12:07;4.33;;;4.07;;
3197;SDS011;1611;49.394;11.136;2023-08-31T03:14:33;4.13;;;3.83;;
3197;SDS011;1611;49.394;11.136;2023-08-31T03:17:00;5.53;;;4.30;;
3197;SDS011;1611;49.394;11.136;2023-08-31T03:19:27;3.87;;;3.53;;
3197;SDS011;1611;49.394;11.136;2023-08-31T03:21:54;6.43;;;4.27;;
3197;SDS011;1611;49.394;11.136;2023-08-31T03:24:22;4.53;;;4.10;;
3197;SDS011;1611;49.394;11.136;2023-08-31T03:26:48;4.33;;;3.93;;
3197;SDS011;1611;49.394;11.136;2023-08-31T03:29:15;5.60;;;5.10;;
3197;SDS011;1611;49.394;11.136;2023-08-31T03:31:42;7.50;;;4.60;;
3197;SDS011;1611;49.394;11.136;2023-08-31T03:34:09;5.40;;;4.20;;
3197;SDS011;1611;49.394;11.136;2023-08-31T03:36:36;5.07;;;4.57;;
3197;SDS011;1611;49.394;11.136;2023-08-31T03:39:03;5.07;;;4.67;;
3197;SDS011;1611;49.394;11.136;2023-08-31T03:41:31;8.70;;;4.43;;
3197;SDS011;1611;49.394;11.136;2023-08-31T03:44:00;15.43;;;4.97;;
3197;SDS011;1611;49.394;11.136;2023-08-31T03:46:27;7.33;;;5.17;;
3197;SDS011;1611;49.394;11.136;2023-08-31T03:48:53;4.57;;;4.27;;
3197;SDS011;1611;49.394;11.136;2023-08-31T03:51:20;5.47;;;5.07;;
3197;SDS011;1611;49.394;11.136;2023-08-31T03:53:47;5.23;;;4.53;;
3197;SDS011;1611;49.394;11.136;2023-08-31T03:56:14;7.70;;;4.00;;
3197;SDS011;1611;49.394;11.136;2023-08-31T03:58:42;5.53;;;5.00;;
3197;SDS011;1611;49.394;11.136;2023-08-31T04:01:09;5.00;;;4.60;;
3197;SDS011;1611;49.394;11.136;2023-08-31T04:03:36;9.37;;;4.23;;
3197;SDS011;1611;49.394;11.136;2023-08-31T04:06:02;4.57;;;4.10;;
3197;SDS011;1611;49.394;11.136;2023-08-31T04:08:30;5.07;;;4.63;;
3197;SDS011;1611;49.394;11.136;2023-08-31T04:10:57;5.03;;;4.40;;
3197;SDS011;1611;49.394;11.136;2023-08-31T04:13:23;4.37;;;3.97;;
3197;SDS011;1611;49.394;11.136;2023-08-31T04:15:52;5.40;;;4.77;;
3197;SDS011;1611;49.394;11.136;2023-08-31T04:18:19;4.33;;;4.00;;
3197;SDS011;1611;49.394;11.136;2023-08-31T04:20:47;5.70;;;4.23;;
3197;SDS011;1611;49.394;11.136;2023-08-31T04:23:16;4.33;;;4.03;;
3197;SDS011;1611;49.394;11.136;2023-08-31T04:25:42;5.23;;;4.67;;
3197;SDS011;1611;49.394;11.136;2023-08-31T04:28:09;6.67;;;4.00;;
3197;SDS011;1611;49.394;11.136;2023-08-31T04:30:36;11.63;;;4.17;;
3197;SDS011;1611;49.394;11.136;2023-08-31T04:33:05;7.93;;;4.43;;
3197;SDS011;1611;49.394;11.136;2023-08-31T04:35:32;5.73;;;5.23;;
3197;SDS011;1611;49.394;11.136;2023-08-31T04:37:59;5.63;;;4.57;;
3197;SDS011;1611;49.394;11.136;2023-08-31T04:40:27;7.80;;;5.90;;
3197;SDS011;1611;49.394;11.136;2023-08-31T04:42:53;8.00;;;5.40;;
3197;SDS011;1611;49.394;11.136;2023-08-31T04:45:20;11.30;;;4.90;;
3197;SDS011;1611;49.394;11.136;2023-08-31T04:47:47;7.53;;;5.07;;
3197;SDS011;1611;49.394;11.136;2023-08-31T04:50:15;6.83;;;4.60;;
3197;SDS011;1611;49.394;11.136;2023-08-31T04:52:42;7.77;;;4.63;;
3197;SDS011;1611;49.394;11.136;2023-08-31T04:55:09;7.30;;;5.63;;
3197;SDS011;1611;49.394;11.136;2023-08-31T04:57:38;9.47;;;5.47;;
3197;SDS011;1611;49.394;11.136;2023-08-31T05:00:05;6.90;;;5.47;;
3197;SDS011;1611;49.394;11.136;2023-08-31T05:02:34;7.07;;;4.50;;
3197;SDS011;1611;49.394;11.136;2023-08-31T05:05:01;5.50;;;5.00;;
3197;SDS011;1611;49.394;11.136;2023-08-31T05:07:29;11.20;;;5.70;;
3197;SDS011;1611;49.394;11.136;2023-08-31T05:09:56;12.43;;;5.80;;
3197;SDS011;1611;49.394;11.136;2023-08-31T05:12:23;7.40;;;5.60;;
3197;SDS011;1611;49.394;11.136;2023-08-31T05:14:50;7.07;;;6.30;;
3197;SDS011;1611;49.394;11.136;2023-08-31T05:17:17;6.63;;;6.03;;
3197;SDS011;1611;49.394;11.136;2023-08-31T05:19:43;8.83;;;6.20;;
3197;SDS011;1611;49.394;11.136;2023-08-31T05:22:11;7.30;;;6.60;;
3197;SDS011;1611;49.394;11.136;2023-08-31T05:24:39;6.43;;;5.83;;
3197;SDS011;1611;49.394;11.136;2023-08-31T05:27:06;7.10;;;6.43;;
3197;SDS011;1611;49.394;11.136;2023-08-31T05:29:32;7.30;;;6.63;;
3197;SDS011;1611;49.394;11.136;2023-08-31T05:31:59;10.73;;;6.80;;
3197;SDS011;1611;49.394;11.136;2023-08-31T05:34:26;10.87;;;6.97;;
3197;SDS011;1611;49.394;11.136;2023-08-31T05:36:52;9.70;;;7.17;;
3197;SDS011;1611;49.394;11.136;2023-08-31T05:39:19;11.10;;;7.67;;
3197;SDS011;1611;49.394;11.136;2023-08-31T05:41:47;8.50;;;6.60;;
3197;SDS011;1611;49.394;11.136;2023-08-31T05:44:14;11.40;;;6.40;;
3197;SDS011;1611;49.394;11.136;2023-08-31T05:46:41;11.63;;;8.33;;
3197;SDS011;1611;49.394;11.136;2023-08-31T05:49:08;8.53;;;7.70;;
3197;SDS011;1611;49.394;11.136;2023-08-31T05:51:34;10.13;;;6.70;;
3197;SDS011;1611;49.394;11.136;2023-08-31T05:54:01;9.33;;;7.93;;
3197;SDS011;1611;49.394;11.136;2023-08-31T05:56:28;8.00;;;7.30;;
3197;SDS011;1611;49.394;11.136;2023-08-31T05:58:56;13.97;;;7.10;;
3197;SDS011;1611;49.394;11.136;2023-08-31T06:01:23;14.00;;;7.83;;
3197;SDS011;1611;49.394;11.136;2023-08-31T06:03:50;7.87;;;7.00;;
3197;SDS011;1611;49.394;11.136;2023-08-31T06:06:17;12.00;;;7.60;;
3197;SDS011;1611;49.394;11.136;2023-08-31T06:08:43;11.97;;;8.07;;
3197;SDS011;1611;49.394;11.136;2023-08-31T06:11:10;9.13;;;7.60;;
3197;SDS011;1611;49.394;11.136;2023-08-31T06:13:38;7.27;;;6.57;;
3197;SDS011;1611;49.394;11.136;2023-08-31T06:16:06;8.37;;;7.50;;
3197;SDS011;1611;49.394;11.136;2023-08-31T06:18:33;8.20;;;7.33;;
3197;SDS011;1611;49.394;11.136;2023-08-31T06:21:00;9.27;;;7.20;;
3197;SDS011;1611;49.394;11.136;2023-08-31T06:23:27;14.23;;;9.20;;
3197;SDS011;1611;49.394;11.136;2023-08-31T06:25:53;10.87;;;8.80;;
3197;SDS011;1611;49.394;11.136;2023-08-31T06:28:20;8.67;;;7.83;;
3197;SDS011;1611;49.394;11.136;2023-08-31T06:30:47;13.53;;;8.53;;
3197;SDS011;1611;49.394;11.136;2023-08-31T06:33:15;9.43;;;8.30;;
3197;SDS011;1611;49.394;11.136;2023-08-31T06:35:44;12.50;;;8.53;;
3197;SDS011;1611;49.394;11.136;2023-08-31T06:38:11;9.70;;;8.70;;
3197;SDS011;1611;49.394;11.136;2023-08-31T06:40:38;8.57;;;7.87;;
3197;SDS011;1611;49.394;11.136;2023-08-31T06:43:05;8.97;;;7.10;;
3197;SDS011;1611;49.394;11.136;2023-08-31T06:45:31;11.17;;;7.10;;
3197;SDS011;1611;49.394;11.136;2023-08-31T06:47:59;9.70;;;7.10;;
3197;SDS011;1611;49.394;11.136;2023-08-31T06:50:28;15.90;;;8.50;;
3197;SDS011;1611;49.394;11.136;2023-08-31T06:52:55;15.57;;;9.90;;
3197;SDS011;1611;49.394;11.136;2023-08-31T06:55:22;17.73;;;9.20;;
3197;SDS011;1611;49.394;11.136;2023-08-31T06:57:48;7.90;;;7.10;;
3197;SDS011;1611;49.394;11.136;2023-08-31T07:00:15;14.80;;;8.37;;
3197;SDS011;1611;49.394;11.136;2023-08-31T07:02:43;8.17;;;7.43;;
3197;SDS011;1611;49.394;11.136;2023-08-31T07:05:10;9.63;;;7.97;;
3197;SDS011;1611;49.394;11.136;2023-08-31T07:07:38;15.73;;;8.43;;
3197;SDS011;1611;49.394;11.136;2023-08-31T07:10:05;9.67;;;7.80;;
3197;SDS011;1611;49.394;11.136;2023-08-31T07:12:33;12.57;;;6.80;;
3197;SDS011;1611;49.394;11.136;2023-08-31T07:14:59;11.27;;;7.53;;
3197;SDS011;1611;49.394;11.136;2023-08-31T07:17:27;9.90;;;8.57;;
3197;SDS011;1611;49.394;11.136;2023-08-31T07:19:54;14.53;;;8.40;;
3197;SDS011;1611;49.394;11.136;2023-08-31T07:22:20;15.93;;;8.40;;
3197;SDS011;1611;49.394;11.136;2023-08-31T07:24:48;7.13;;;6.43;;
3197;SDS011;1611;49.394;11.136;2023-08-31T07:27:15;7.83;;;6.43;;
3197;SDS011;1611;49.394;11.136;2023-08-31T07:29:42;16.30;;;7.70;;
3197;SDS011;1611;49.394;11.136;2023-08-31T07:32:09;10.77;;;7.67;;
3197;SDS011;1611;49.394;11.136;2023-08-31T07:34:35;8.80;;;7.93;;
3197;SDS011;1611;49.394;11.136;2023-08-31T07:37:02;9.50;;;6.93;;
3197;SDS011;1611;49.394;11.136;2023-08-31T07:39:30;7.93;;;6.60;;
3197;SDS011;1611;49.394;11.136;2023-08-31T07:41:58;8.50;;;6.60;;
3197;SDS011;1611;49.394;11.136;2023-08-31T07:44:25;11.60;;;6.73;;
3197;SDS011;1611;49.394;11.136;2023-08-31T07:46:52;8.40;;;6.57;;
3197;SDS011;1611;49.394;11.136;2023-08-31T07:49:19;7.10;;;6.13;;
3197;SDS011;1611;49.394;11.136;2023-08-31T07:51:45;6.60;;;5.90;;
3197;SDS011;1611;49.394;11.136;2023-08-31T07:54:18;7.23;;;6.43;;
3197;SDS011;1611;49.394;11.136;2023-08-31T07:56:45;7.30;;;6.60;;
3197;SDS011;1611;49.394;11.136;2023-08-31T07:59:13;8.50;;;5.87;;
3197;SDS011;1611;49.394;11.136;2023-08-31T08:01:40;8.70;;;5.93;;
3197;SDS011;1611;49.394;11.136;2023-08-31T08:04:07;8.47;;;5.10;;
3197;SDS011;1611;49.394;11.136;2023-08-31T08:06:34;9.13;;;5.63;;
3197;SDS011;1611;49.394;11.136;2023-08-31T08:09:00;6.33;;;5.03;;
3197;SDS011;1611;49.394;11.136;2023-08-31T08:11:27;7.07;;;4.17;;
3197;SDS011;1611;49.394;11.136;2023-08-31T08:13:54;7.80;;;4.57;;
3197;SDS011;1611;49.394;11.136;2023-08-31T08:16:22;5.53;;;4.40;;
3197;SDS011;1611;49.394;11.136;2023-08-31T08:18:49;3.60;;;3.40;;
3197;SDS011;1611;49.394;11.136;2023-08-31T08:21:16;5.20;;;4.23;;
3197;SDS011;1611;49.394;11.136;2023-08-31T08:23:43;3.63;;;3.23;;
3197;SDS011;1611;49.394;11.136;2023-08-31T08:26:09;10.20;;;3.97;;
3197;SDS011;1611;49.394;11.136;2023-08-31T08:28:36;3.03;;;2.83;;
3197;SDS011;1611;49.394;11.136;2023-08-31T08:31:03;6.57;;;4.20;;
3197;SDS011;1611;49.394;11.136;2023-08-31T08:33:31;6.50;;;3.77;;
3197;SDS011;1611;49.394;11.136;2023-08-31T08:35:58;6.00;;;3.67;;
3197;SDS011;1611;49.394;11.136;2023-08-31T08:38:25;6.17;;;3.50;;
3197;SDS011;1611;49.394;11.136;2023-08-31T08:40:52;4.67;;;4.00;;
3197;SDS011;1611;49.394;11.136;2023-08-31T08:43:20;9.30;;;3.53;;
3197;SDS011;1611;49.394;11.136;2023-08-31T08:45:51;5.07;;;3.80;;
3197;SDS011;1611;49.394;11.136;2023-08-31T08:48:18;5.23;;;2.70;;
3197;SDS011;1611;49.394;11.136;2023-08-31T08:50:47;3.23;;;2.87;;
3197;SDS011;1611;49.394;11.136;2023-08-31T08:53:15;5.53;;;3.03;;
3197;SDS011;1611;49.394;11.136;2023-08-31T08:55:42;4.47;;;2.80;;
3197;SDS011;1611;49.394;11.136;2023-08-31T08:58:08;4.80;;;3.10;;
3197;SDS011;1611;49.394;11.136;2023-08-31T09:00:35;5.30;;;2.60;;
3197;SDS011;1611;49.394;11.136;2023-08-31T09:03:03;8.83;;;2.87;;
3197;SDS011;1611;49.394;11.136;2023-08-31T09:05:30;6.80;;;3.00;;
3197;SDS011;1611;49.394;11.136;2023-08-31T09:08:02;3.87;;;3.30;;
3197;SDS011;1611;49.394;11.136;2023-08-31T09:10:33;7.20;;;3.00;;
3197;SDS011;1611;49.394;11.136;2023-08-31T09:13:05;6.50;;;3.27;;
3197;SDS011;1611;49.394;11.136;2023-08-31T09:15:39;6.23;;;2.73;;
3197;SDS011;1611;49.394;11.136;2023-08-31T09:18:07;4.30;;;2.57;;
3197;SDS011;1611;49.394;11.136;2023-08-31T09:20:43;4.07;;;2.80;;
3197;SDS011;1611;49.394;11.136;2023-08-31T09:23:13;4.03;;;2.80;;
3197;SDS011;1611;49.394;11.136;2023-08-31T09:25:42;3.27;;;2.67;;
3197;SDS011;1611;49.394;11.136;2023-08-31T09:28:10;5.87;;;3.03;;
3197;SDS011;1611;49.394;11.136;2023-08-31T09:30:38;2.90;;;2.43;;
3197;SDS011;1611;49.394;11.136;2023-08-31T09:33:06;4.37;;;2.97;;
3197;SDS011;1611;49.394;11.136;2023-08-31T09:35:34;4.07;;;2.80;;
3197;SDS011;1611;49.394;11.136;2023-08-31T09:38:07;4.60;;;2.63;;
3197;SDS011;1611;49.394;11.136;2023-08-31T09:40:36;2.70;;;2.47;;
3197;SDS011;1611;49.394;11.136;2023-08-31T09:43:03;2.93;;;2.67;;
3197;SDS011;1611;49.394;11.136;2023-08-31T09:45:31;2.53;;;2.33;;
3197;SDS011;1611;49.394;11.136;2023-08-31T09:47:58;5.03;;;2.80;;
3197;SDS011;1611;49.394;11.136;2023-08-31T09:50:26;3.03;;;2.63;;
3197;SDS011;1611;49.394;11.136;2023-08-31T09:52:55;5.33;;;3.33;;
3197;SDS011;1611;49.394;11.136;2023-08-31T09:55:25;2.80;;;2.70;;
3197;SDS011;1611;49.394;11.136;2023-08-31T09:57:56;6.00;;;2.37;;
3197;SDS011;1611;49.394;11.136;2023-08-31T10:00:24;4.63;;;2.73;;
3197;SDS011;1611;49.394;11.136;2023-08-31T10:02:52;3.47;;;2.87;;
3197;SDS011;1611;49.394;11.136;2023-08-31T10:05:20;3.10;;;2.53;;
3197;SDS011;1611;49.394;11.136;2023-08-31T10:07:48;3.40;;;3.10;;
3197;SDS011;1611;49.394;11.136;2023-08-31T10:10:16;6.10;;;3.07;;
3197;SDS011;1611;49.394;11.136;2023-08-31T10:12:43;3.20;;;2.10;;
3197;SDS011;1611;49.394;11.136;2023-08-31T10:15:13;3.70;;;3.13;;
3197;SDS011;1611;49.394;11.136;2023-08-31T10:17:41;5.90;;;2.80;;
3197;SDS011;1611;49.394;11.136;2023-08-31T10:20:09;5.63;;;3.20;;
3197;SDS011;1611;49.394;11.136;2023-08-31T10:22:37;8.33;;;3.07;;
3197;SDS011;1611;49.394;11.136;2023-08-31T10:25:05;8.73;;;3.50;;
3197;SDS011;1611;49.394;11.136;2023-08-31T10:27:36;3.70;;;2.63;;
3197;SDS011;1611;49.394;11.136;2023-08-31T10:30:25;6.27;;;3.27;;
3197;SDS011;1611;49.394;11.136;2023-08-31T10:33:12;2.70;;;2.50;;
3197;SDS011;1611;49.394;11.136;2023-08-31T10:35:48;2.87;;;2.67;;
3197;SDS011;1611;49.394;11.136;2023-08-31T10:38:16;4.50;;;3.00;;
3197;SDS011;1611;49.394;11.136;2023-08-31T10:41:02;3.23;;;2.90;;
3197;SDS011;1611;49.394;11.136;2023-08-31T10:43:46;7.30;;;3.20;;
3197;SDS011;1611;49.394;11.136;2023-08-31T10:46:17;4.33;;;3.10;;
3197;SDS011;1611;49.394;11.136;2023-08-31T10:48:54;3.47;;;2.90;;
3197;SDS011;1611;49.394;11.136;2023-08-31T10:51:22;4.40;;;2.90;;
3197;SDS011;1611;49.394;11.136;2023-08-31T10:53:50;4.63;;;3.60;;
3197;SDS011;1611;49.394;11.136;2023-08-31T10:56:17;9.43;;;3.17;;
3197;SDS011;1611;49.394;11.136;2023-08-31T10:58:54;3.23;;;3.10;;
3197;SDS011;1611;49.394;11.136;2023-08-31T11:04:20;4.50;;;3.40;;
3197;SDS011;1611;49.394;11.136;2023-08-31T11:06:47;3.90;;;3.03;;
3197;SDS011;1611;49.394;11.136;2023-08-31T11:09:18;8.60;;;3.37;;
3197;SDS011;1611;49.394;11.136;2023-08-31T11:11:45;4.93;;;3.27;;
3197;SDS011;1611;49.394;11.136;2023-08-31T11:14:13;4.33;;;2.70;;
3197;SDS011;1611;49.394;11.136;2023-08-31T11:16:40;3.23;;;2.73;;
3197;SDS011;1611;49.394;11.136;2023-08-31T11:19:10;4.57;;;3.77;;
3197;SDS011;1611;49.394;11.136;2023-08-31T11:21:37;6.90;;;3.00;;
3197;SDS011;1611;49.394;11.136;2023-08-31T11:24:04;4.67;;;3.20;;
3197;SDS011;1611;49.394;11.136;2023-08-31T11:26:31;8.53;;;3.60;;
3197;SDS011;1611;49.394;11.136;2023-08-31T11:28:59;4.33;;;3.40;;
3197;SDS011;1611;49.394;11.136;2023-08-31T11:31:26;3.30;;;3.10;;
3197;SDS011;1611;49.394;11.136;2023-08-31T11:33:53;7.00;;;3.20;;
3197;SDS011;1611;49.394;11.136;2023-08-31T11:36:22;9.37;;;3.47;;
3197;SDS011;1611;49.394;11.136;2023-08-31T11:38:50;4.40;;;3.27;;
3197;SDS011;1611;49.394;11.136;2023-08-31T11:41:17;3.90;;;3.53;;
3197;SDS011;1611;49.394;11.136;2023-08-31T11:43:44;4.30;;;2.87;;
3197;SDS011;1611;49.394;11.136;2023-08-31T11:46:11;3.93;;;3.40;;
3197;SDS011;1611;49.394;11.136;2023-08-31T11:48:38;4.63;;;3.07;;
3197;SDS011;1611;49.394;11.136;2023-08-31T11:51:05;4.50;;;3.07;;
3197;SDS011;1611;49.394;11.136;2023-08-31T11:53:34;6.13;;;2.83;;
3197;SDS011;1611;49.394;11.136;2023-08-31T11:56:01;3.73;;;2.97;;
3197;SDS011;1611;49.394;11.136;2023-08-31T11:58:28;3.10;;;3.00;;
3197;SDS011;1611;49.394;11.136;2023-08-31T12:00:56;3.37;;;2.33;;
3197;SDS011;1611;49.394;11.136;2023-08-31T12:03:24;4.07;;;3.20;;
3197;SDS011;1611;49.394;11.136;2023-08-31T12:05:51;8.03;;;3.40;;
3197;SDS011;1611;49.394;11.136;2023-08-31T12:08:25;7.63;;;2.90;;
3197;SDS011;1611;49.394;11.136;2023-08-31T12:10:54;3.07;;;2.83;;
3197;SDS011;1611;49.394;11.136;2023-08-31T12:13:25;3.57;;;3.10;;
3197;SDS011;1611;49.394;11.136;2023-08-31T12:15:53;3.87;;;2.80;;
3197;SDS011;1611;49.394;11.136;2023-08-31T12:18:21;3.40;;;2.73;;
3197;SDS011;1611;49.394;11.136;2023-08-31T12:20:49;4.77;;;2.90;;
3197;SDS011;1611;49.394;11.136;2023-08-31T12:23:17;7.53;;;3.13;;
3197;SDS011;1611;49.394;11.136;2023-08-31T12:25:47;6.27;;;3.60;;
3197;SDS011;1611;49.394;11.136;2023-08-31T12:28:16;3.70;;;2.80;;
3197;SDS011;1611;49.394;11.136;2023-08-31T12:30:45;3.17;;;2.87;;
3197;SDS011;1611;49.394;11.136;2023-08-31T12:33:13;6.33;;;2.90;;
3197;SDS011;1611;49.394;11.136;2023-08-31T12:35:40;8.77;;;3.70;;
3197;SDS011;1611;49.394;11.136;2023-08-31T12:38:07;5.43;;;3.10;;
3197;SDS011;1611;49.394;11.136;2023-08-31T12:40:34;4.30;;;2.80;;
3197;SDS011;1611;49.394;11.136;2023-08-31T12:43:00;4.93;;;2.80;;
3197;SDS011;1611;49.394;11.136;2023-08-31T12:45:29;7.20;;;2.83;;
3197;SDS011;1611;49.394;11.136;2023-08-31T12:47:56;3.60;;;3.07;;
3197;SDS011;1611;49.394;11.136;2023-08-31T12:50:23;4.03;;;2.70;;
3197;SDS011;1611;49.394;11.136;2023-08-31T12:52:50;4.30;;;3.00;;
3197;SDS011;1611;49.394;11.136;2023-08-31T12:55:16;3.87;;;2.97;;
3197;SDS011;1611;49.394;11.136;2023-08-31T12:57:43;3.00;;;2.70;;
3197;SDS011;1611;49.394;11.136;2023-08-31T13:00:10;5.97;;;2.97;;
3197;SDS011;1611;49.394;11.136;2023-08-31T13:02:40;7.53;;;2.90;;
3197;SDS011;1611;49.394;11.136;2023-08-31T13:05:07;3.60;;;2.77;;
3197;SDS011;1611;49.394;11.136;2023-08-31T13:07:35;5.60;;;2.90;;
3197;SDS011;1611;49.394;11.136;2023-08-31T13:10:02;3.07;;;2.80;;
3197;SDS011;1611;49.394;11.136;2023-08-31T13:12:31;3.80;;;3.50;;
3197;SDS011;1611;49.394;11.136;2023-08-31T13:14:58;8.93;;;3.33;;
3197;SDS011;1611;49.394;11.136;2023-08-31T13:17:26;3.37;;;2.93;;
3197;SDS011;1611;49.394;11.136;2023-08-31T13:19:55;6.77;;;2.73;;
3197;SDS011;1611;49.394;11.136;2023-08-31T13:22:23;4.10;;;3.03;;
3197;SDS011;1611;49.394;11.136;2023-08-31T13:24:50;3.93;;;2.70;;
3197;SDS011;1611;49.394;11.136;2023-08-31T13:27:17;2.90;;;2.70;;
3197;SDS011;1611;49.394;11.136;2023-08-31T13:29:44;6.20;;;3.00;;
3197;SDS011;1611;49.394;11.136;2023-08-31T13:32:10;2.80;;;2.60;;
3197;SDS011;1611;49.394;11.136;2023-08-31T13:34:37;7.57;;;3.20;;
3197;SDS011;1611;49.394;11.136;2023-08-31T13:37:05;5.00;;;2.73;;
3197;SDS011;1611;49.394;11.136;2023-08-31T13:39:34;2.73;;;2.53;;
3197;SDS011;1611;49.394;11.136;2023-08-31T13:42:03;4.03;;;2.60;;
3197;SDS011;1611;49.394;11.136;2023-08-31T13:44:31;6.40;;;2.80;;
3197;SDS011;1611;49.394;11.136;2023-08-31T13:46:58;5.77;;;2.63;;
3197;SDS011;1611;49.394;11.136;2023-08-31T13:49:25;2.57;;;2.40;;
3197;SDS011;1611;49.394;11.136;2023-08-31T13:51:52;3.13;;;2.80;;
3197;SDS011;1611;49.394;11.136;2023-08-31T13:54:20;2.70;;;2.50;;
3197;SDS011;1611;49.394;11.136;2023-08-31T13:56:46;2.53;;;2.20;;
3197;SDS011;1611;49.394;11.136;2023-08-31T13:59:15;3.20;;;2.47;;
3197;SDS011;1611;49.394;11.136;2023-08-31T14:01:41;2.60;;;2.33;;
3197;SDS011;1611;49.394;11.136;2023-08-31T14:04:08;2.80;;;2.60;;
3197;SDS011;1611;49.394;11.136;2023-08-31T14:06:35;3.33;;;2.83;;
3197;SDS011;1611;49.394;11.136;2023-08-31T14:09:02;2.60;;;2.40;;
3197;SDS011;1611;49.394;11.136;2023-08-31T14:11:31;2.83;;;2.63;;
3197;SDS011;1611;49.394;11.136;2023-08-31T14:14:01;6.07;;;2.70;;
3197;SDS011;1611;49.394;11.136;2023-08-31T14:16:31;5.37;;;2.43;;
3197;SDS011;1611;49.394;11.136;2023-08-31T14:18:58;2.93;;;2.57;;
3197;SDS011;1611;49.394;11.136;2023-08-31T14:21:25;3.90;;;2.30;;
3197;SDS011;1611;49.394;11.136;2023-08-31T14:23:52;2.63;;;2.40;;
3197;SDS011;1611;49.394;11.136;2023-08-31T14:26:20;8.30;;;2.50;;
3197;SDS011;1611;49.394;11.136;2023-08-31T14:28:49;3.53;;;2.67;;
3197;SDS011;1611;49.394;11.136;2023-08-31T14:31:16;2.83;;;2.60;;
3197;SDS011;1611;49.394;11.136;2023-08-31T14:33:43;3.50;;;2.57;;
3197;SDS011;1611;49.394;11.136;2023-08-31T14:36:11;5.80;;;2.30;;
3197;SDS011;1611;49.394;11.136;2023-08-31T14:38:41;8.83;;;3.00;;
3197;SDS011;1611;49.394;11.136;2023-08-31T14:41:08;6.33;;;2.90;;
3197;SDS011;1611;49.394;11.136;2023-08-31T14:43:35;7.60;;;2.90;;
3197;SDS011;1611;49.394;11.136;2023-08-31T14:46:03;2.50;;;2.30;;
3197;SDS011;1611;49.394;11.136;2023-08-31T14:48:30;3.63;;;2.33;;
3197;SDS011;1611;49.394;11.136;2023-08-31T14:50:58;2.77;;;2.57;;
3197;SDS011;1611;49.394;11.136;2023-08-31T14:53:25;4.20;;;3.00;;
3197;SDS011;1611;49.394;11.136;2023-08-31T14:55:52;3.23;;;2.60;;
3197;SDS011;1611;49.394;11.136;2023-08-31T14:58:19;4.40;;;2.83;;
3197;SDS011;1611;49.394;11.136;2023-08-31T15:00:46;4.27;;;2.60;;
3197;SDS011;1611;49.394;11.136;2023-08-31T15:03:14;4.20;;;2.40;;
3197;SDS011;1611;49.394;11.136;2023-08-31T15:05:41;4.93;;;3.00;;
3197;SDS011;1611;49.394;11.136;2023-08-31T15:08:08;7.40;;;2.40;;